sensor_id;sensor_type;location;lat;lon;timestamp;P1;durP1;ratioP1;P2;durP2;ratioP2
9761;SDS011;4920;49.594;11.022;2022-09-20T00:01:31;8.30;;;3.93;;
9761;SDS011;4920;49.594;11.022;2022-09-20T00:04:02;14.93;;;4.43;;
9761;SDS011;4920;49.594;11.022;2022-09-20T00:06:32;10.70;;;4.23;;
9761;SDS011;4920;49.594;11.022;2022-09-20T00:09:03;11.57;;;4.27;;
9761;SDS011;4920;49.594;11.022;2022-09-20T00:11:33;13.47;;;4.23;;
9761;SDS011;4920;49.594;11.022;2022-09-20T00:14:03;9.67;;;4.00;;
9761;SDS011;4920;49.594;11.022;2022-09-20T00:16:34;11.53;;;4.30;;
9761;SDS011;4920;49.594;11.022;2022-09-20T00:19:07;9.43;;;4.13;;
9761;SDS011;4920;49.594;11.022;2022-09-20T00:21:37;11.50;;;4.13;;
9761;SDS011;4920;49.594;11.022;2022-09-20T00:24:06;11.73;;;3.90;;
9761;SDS011;4920;49.594;11.022;2022-09-20T00:26:37;12.37;;;4.30;;
9761;SDS011;4920;49.594;11.022;2022-09-20T00:29:06;7.30;;;4.47;;
9761;SDS011;4920;49.594;11.022;2022-09-20T00:31:35;10.10;;;3.77;;
9761;SDS011;4920;49.594;11.022;2022-09-20T00:34:06;6.53;;;3.70;;
9761;SDS011;4920;49.594;11.022;2022-09-20T00:36:54;6.90;;;3.53;;
9761;SDS011;4920;49.594;11.022;2022-09-20T00:39:23;6.50;;;3.53;;
9761;SDS011;4920;49.594;11.022;2022-09-20T00:41:52;12.23;;;4.10;;
9761;SDS011;4920;49.594;11.022;2022-09-20T00:47:14;12.43;;;4.00;;
9761;SDS011;4920;49.594;11.022;2022-09-20T00:49:49;8.83;;;3.83;;
9761;SDS011;4920;49.594;11.022;2022-09-20T00:52:21;7.53;;;3.47;;
9761;SDS011;4920;49.594;11.022;2022-09-20T00:54:51;5.97;;;3.57;;
9761;SDS011;4920;49.594;11.022;2022-09-20T00:57:20;7.70;;;3.87;;
9761;SDS011;4920;49.594;11.022;2022-09-20T00:59:50;8.83;;;4.07;;
9761;SDS011;4920;49.594;11.022;2022-09-20T01:02:22;10.67;;;4.07;;
9761;SDS011;4920;49.594;11.022;2022-09-20T01:04:53;7.20;;;3.93;;
9761;SDS011;4920;49.594;11.022;2022-09-20T01:07:25;11.93;;;4.33;;
9761;SDS011;4920;49.594;11.022;2022-09-20T01:09:55;10.20;;;5.17;;
9761;SDS011;4920;49.594;11.022;2022-09-20T01:12:25;10.33;;;5.20;;
9761;SDS011;4920;49.594;11.022;2022-09-20T01:14:56;8.97;;;4.90;;
9761;SDS011;4920;49.594;11.022;2022-09-20T01:17:27;13.43;;;5.23;;
9761;SDS011;4920;49.594;11.022;2022-09-20T01:20:03;12.67;;;4.77;;
9761;SDS011;4920;49.594;11.022;2022-09-20T01:22:46;11.07;;;5.10;;
9761;SDS011;4920;49.594;11.022;2022-09-20T01:25:25;11.27;;;5.60;;
9761;SDS011;4920;49.594;11.022;2022-09-20T01:28:05;11.53;;;5.13;;
9761;SDS011;4920;49.594;11.022;2022-09-20T01:30:35;11.00;;;4.90;;
9761;SDS011;4920;49.594;11.022;2022-09-20T01:33:08;7.83;;;3.87;;
9761;SDS011;4920;49.594;11.022;2022-09-20T01:35:41;11.30;;;4.70;;
9761;SDS011;4920;49.594;11.022;2022-09-20T01:38:17;9.77;;;5.30;;
9761;SDS011;4920;49.594;11.022;2022-09-20T01:40:57;10.03;;;4.10;;
9761;SDS011;4920;49.594;11.022;2022-09-20T01:43:35;12.07;;;4.87;;
9761;SDS011;4920;49.594;11.022;2022-09-20T01:46:10;11.27;;;4.87;;
9761;SDS011;4920;49.594;11.022;2022-09-20T01:48:49;7.47;;;4.23;;
9761;SDS011;4920;49.594;11.022;2022-09-20T01:51:33;10.73;;;5.00;;
9761;SDS011;4920;49.594;11.022;2022-09-20T02:00:33;9.03;;;3.83;;
9761;SDS011;4920;49.594;11.022;2022-09-20T02:03:35;8.23;;;3.90;;
9761;SDS011;4920;49.594;11.022;2022-09-20T02:06:28;8.73;;;3.80;;
9761;SDS011;4920;49.594;11.022;2022-09-20T02:09:13;9.77;;;3.90;;
9761;SDS011;4920;49.594;11.022;2022-09-20T02:15:02;8.77;;;4.20;;
9761;SDS011;4920;49.594;11.022;2022-09-20T02:17:40;12.03;;;4.67;;
9761;SDS011;4920;49.594;11.022;2022-09-20T02:20:18;14.00;;;4.13;;
9761;SDS011;4920;49.594;11.022;2022-09-20T02:23:04;14.10;;;4.70;;
9761;SDS011;4920;49.594;11.022;2022-09-20T02:25:48;11.80;;;4.60;;
9761;SDS011;4920;49.594;11.022;2022-09-20T02:28:53;11.47;;;4.20;;
9761;SDS011;4920;49.594;11.022;2022-09-20T02:31:32;12.37;;;4.30;;
9761;SDS011;4920;49.594;11.022;2022-09-20T02:34:26;10.17;;;4.47;;
9761;SDS011;4920;49.594;11.022;2022-09-20T02:37:20;11.80;;;4.40;;
9761;SDS011;4920;49.594;11.022;2022-09-20T02:40:10;9.97;;;4.57;;
9761;SDS011;4920;49.594;11.022;2022-09-20T02:42:54;11.30;;;4.97;;
9761;SDS011;4920;49.594;11.022;2022-09-20T02:45:31;12.47;;;4.50;;
9761;SDS011;4920;49.594;11.022;2022-09-20T02:48:07;11.90;;;4.60;;
9761;SDS011;4920;49.594;11.022;2022-09-20T02:50:41;11.70;;;4.60;;
9761;SDS011;4920;49.594;11.022;2022-09-20T02:53:25;11.00;;;4.70;;
9761;SDS011;4920;49.594;11.022;2022-09-20T02:56:03;10.10;;;5.03;;
9761;SDS011;4920;49.594;11.022;2022-09-20T02:58:43;10.87;;;4.63;;
9761;SDS011;4920;49.594;11.022;2022-09-20T03:01:20;12.30;;;5.47;;
9761;SDS011;4920;49.594;11.022;2022-09-20T03:04:01;10.70;;;5.13;;
9761;SDS011;4920;49.594;11.022;2022-09-20T03:06:44;14.73;;;5.40;;
9761;SDS011;4920;49.594;11.022;2022-09-20T03:09:28;12.90;;;5.20;;
9761;SDS011;4920;49.594;11.022;2022-09-20T03:12:03;14.83;;;5.13;;
9761;SDS011;4920;49.594;11.022;2022-09-20T03:14:43;15.13;;;5.90;;
9761;SDS011;4920;49.594;11.022;2022-09-20T03:17:21;14.10;;;5.50;;
9761;SDS011;4920;49.594;11.022;2022-09-20T03:20:02;13.70;;;5.77;;
9761;SDS011;4920;49.594;11.022;2022-09-20T03:22:38;11.00;;;5.40;;
9761;SDS011;4920;49.594;11.022;2022-09-20T03:25:21;9.23;;;5.00;;
9761;SDS011;4920;49.594;11.022;2022-09-20T03:28:02;15.83;;;6.13;;
9761;SDS011;4920;49.594;11.022;2022-09-20T03:30:42;10.03;;;5.47;;
9761;SDS011;4920;49.594;11.022;2022-09-20T03:33:21;12.83;;;5.60;;
9761;SDS011;4920;49.594;11.022;2022-09-20T03:36:00;14.23;;;6.53;;
9761;SDS011;4920;49.594;11.022;2022-09-20T03:38:49;13.97;;;5.53;;
9761;SDS011;4920;49.594;11.022;2022-09-20T03:44:44;23.43;;;7.37;;
9761;SDS011;4920;49.594;11.022;2022-09-20T03:47:40;14.40;;;6.20;;
9761;SDS011;4920;49.594;11.022;2022-09-20T03:50:29;18.97;;;6.93;;
9761;SDS011;4920;49.594;11.022;2022-09-20T03:56:27;14.63;;;7.43;;
9761;SDS011;4920;49.594;11.022;2022-09-20T03:59:08;16.27;;;7.77;;
9761;SDS011;4920;49.594;11.022;2022-09-20T04:01:53;15.57;;;7.13;;
9761;SDS011;4920;49.594;11.022;2022-09-20T04:04:43;17.03;;;8.23;;
9761;SDS011;4920;49.594;11.022;2022-09-20T04:07:17;16.00;;;8.53;;
9761;SDS011;4920;49.594;11.022;2022-09-20T04:09:55;16.97;;;7.60;;
9761;SDS011;4920;49.594;11.022;2022-09-20T04:12:58;27.20;;;8.70;;
9761;SDS011;4920;49.594;11.022;2022-09-20T04:15:40;13.50;;;7.33;;
9761;SDS011;4920;49.594;11.022;2022-09-20T04:18:21;25.00;;;8.57;;
9761;SDS011;4920;49.594;11.022;2022-09-20T04:20:56;20.47;;;8.13;;
9761;SDS011;4920;49.594;11.022;2022-09-20T04:23:33;21.67;;;8.37;;
9761;SDS011;4920;49.594;11.022;2022-09-20T04:26:08;16.83;;;8.40;;
9761;SDS011;4920;49.594;11.022;2022-09-20T04:28:38;17.03;;;8.03;;
9761;SDS011;4920;49.594;11.022;2022-09-20T04:31:15;17.77;;;8.57;;
9761;SDS011;4920;49.594;11.022;2022-09-20T04:33:51;23.80;;;8.87;;
9761;SDS011;4920;49.594;11.022;2022-09-20T04:36:28;16.17;;;8.70;;
9761;SDS011;4920;49.594;11.022;2022-09-20T04:39:23;23.43;;;9.90;;
9761;SDS011;4920;49.594;11.022;2022-09-20T04:51:58;23.80;;;11.73;;
9761;SDS011;4920;49.594;11.022;2022-09-20T04:54:45;26.47;;;10.57;;
9761;SDS011;4920;49.594;11.022;2022-09-20T05:07:25;19.20;;;8.87;;
9761;SDS011;4920;49.594;11.022;2022-09-20T05:10:29;21.10;;;9.27;;
9761;SDS011;4920;49.594;11.022;2022-09-20T05:13:20;25.37;;;9.73;;
9761;SDS011;4920;49.594;11.022;2022-09-20T05:16:04;18.87;;;9.13;;
9761;SDS011;4920;49.594;11.022;2022-09-20T05:18:46;20.93;;;9.53;;
9761;SDS011;4920;49.594;11.022;2022-09-20T05:24:40;17.50;;;8.37;;
9761;SDS011;4920;49.594;11.022;2022-09-20T05:27:28;20.13;;;8.40;;
9761;SDS011;4920;49.594;11.022;2022-09-20T05:30:12;21.23;;;7.90;;
9761;SDS011;4920;49.594;11.022;2022-09-20T05:32:50;18.07;;;7.83;;
9761;SDS011;4920;49.594;11.022;2022-09-20T05:35:29;16.67;;;7.53;;
9761;SDS011;4920;49.594;11.022;2022-09-20T05:38:04;17.83;;;8.83;;
9761;SDS011;4920;49.594;11.022;2022-09-20T05:40:45;21.67;;;7.90;;
9761;SDS011;4920;49.594;11.022;2022-09-20T05:43:30;15.83;;;8.17;;
9761;SDS011;4920;49.594;11.022;2022-09-20T05:46:04;25.73;;;9.03;;
9761;SDS011;4920;49.594;11.022;2022-09-20T05:48:45;16.63;;;8.07;;
9761;SDS011;4920;49.594;11.022;2022-09-20T05:51:26;18.90;;;8.80;;
9761;SDS011;4920;49.594;11.022;2022-09-20T05:54:10;21.97;;;8.17;;
9761;SDS011;4920;49.594;11.022;2022-09-20T05:56:54;14.27;;;7.13;;
9761;SDS011;4920;49.594;11.022;2022-09-20T05:59:38;24.27;;;12.33;;
9761;SDS011;4920;49.594;11.022;2022-09-20T06:02:19;16.80;;;8.50;;
9761;SDS011;4920;49.594;11.022;2022-09-20T06:05:02;16.50;;;7.33;;
9761;SDS011;4920;49.594;11.022;2022-09-20T06:07:42;11.87;;;7.33;;
9761;SDS011;4920;49.594;11.022;2022-09-20T06:10:35;15.13;;;7.13;;
9761;SDS011;4920;49.594;11.022;2022-09-20T06:13:21;11.47;;;6.37;;
9761;SDS011;4920;49.594;11.022;2022-09-20T06:16:00;16.03;;;6.03;;
9761;SDS011;4920;49.594;11.022;2022-09-20T06:18:33;10.70;;;5.17;;
9761;SDS011;4920;49.594;11.022;2022-09-20T06:21:09;16.17;;;6.00;;
9761;SDS011;4920;49.594;11.022;2022-09-20T06:23:48;13.87;;;5.27;;
9761;SDS011;4920;49.594;11.022;2022-09-20T06:26:18;10.83;;;4.90;;
9761;SDS011;4920;49.594;11.022;2022-09-20T06:28:51;13.60;;;5.67;;
9761;SDS011;4920;49.594;11.022;2022-09-20T06:31:24;17.83;;;6.27;;
9761;SDS011;4920;49.594;11.022;2022-09-20T06:33:55;10.57;;;5.70;;
9761;SDS011;4920;49.594;11.022;2022-09-20T06:36:26;11.10;;;5.60;;
9761;SDS011;4920;49.594;11.022;2022-09-20T06:39:16;10.50;;;5.60;;
9761;SDS011;4920;49.594;11.022;2022-09-20T06:42:08;15.73;;;5.70;;
9761;SDS011;4920;49.594;11.022;2022-09-20T06:44:39;10.87;;;5.63;;
9761;SDS011;4920;49.594;11.022;2022-09-20T06:47:09;12.23;;;5.67;;
9761;SDS011;4920;49.594;11.022;2022-09-20T06:49:39;10.80;;;5.30;;
9761;SDS011;4920;49.594;11.022;2022-09-20T06:52:10;15.23;;;5.80;;
9761;SDS011;4920;49.594;11.022;2022-09-20T06:54:41;8.47;;;4.60;;
9761;SDS011;4920;49.594;11.022;2022-09-20T06:57:11;10.70;;;5.20;;
9761;SDS011;4920;49.594;11.022;2022-09-20T06:59:43;10.93;;;5.10;;
9761;SDS011;4920;49.594;11.022;2022-09-20T07:02:12;8.50;;;4.30;;
9761;SDS011;4920;49.594;11.022;2022-09-20T07:04:43;8.87;;;4.37;;
9761;SDS011;4920;49.594;11.022;2022-09-20T07:07:14;11.43;;;4.67;;
9761;SDS011;4920;49.594;11.022;2022-09-20T07:09:44;11.90;;;4.73;;
9761;SDS011;4920;49.594;11.022;2022-09-20T07:12:13;8.83;;;5.03;;
9761;SDS011;4920;49.594;11.022;2022-09-20T07:14:42;9.30;;;4.20;;
9761;SDS011;4920;49.594;11.022;2022-09-20T07:17:10;7.27;;;4.07;;
9761;SDS011;4920;49.594;11.022;2022-09-20T07:19:40;9.10;;;4.60;;
9761;SDS011;4920;49.594;11.022;2022-09-20T07:22:10;9.07;;;4.70;;
9761;SDS011;4920;49.594;11.022;2022-09-20T07:24:40;8.10;;;4.07;;
9761;SDS011;4920;49.594;11.022;2022-09-20T07:27:10;7.20;;;4.97;;
9761;SDS011;4920;49.594;11.022;2022-09-20T07:29:39;12.13;;;5.83;;
9761;SDS011;4920;49.594;11.022;2022-09-20T07:32:08;11.30;;;6.70;;
9761;SDS011;4920;49.594;11.022;2022-09-20T07:34:37;12.83;;;6.43;;
9761;SDS011;4920;49.594;11.022;2022-09-20T07:37:06;15.20;;;7.37;;
9761;SDS011;4920;49.594;11.022;2022-09-20T07:39:36;16.17;;;7.23;;
9761;SDS011;4920;49.594;11.022;2022-09-20T07:42:05;13.10;;;7.43;;
9761;SDS011;4920;49.594;11.022;2022-09-20T07:44:34;11.93;;;6.87;;
9761;SDS011;4920;49.594;11.022;2022-09-20T07:47:03;14.30;;;6.90;;
9761;SDS011;4920;49.594;11.022;2022-09-20T07:49:31;13.63;;;7.17;;
9761;SDS011;4920;49.594;11.022;2022-09-20T07:52:01;13.17;;;6.20;;
9761;SDS011;4920;49.594;11.022;2022-09-20T07:54:30;10.87;;;5.50;;
9761;SDS011;4920;49.594;11.022;2022-09-20T07:57:00;12.70;;;5.80;;
9761;SDS011;4920;49.594;11.022;2022-09-20T07:59:31;12.57;;;5.50;;
9761;SDS011;4920;49.594;11.022;2022-09-20T08:01:59;12.43;;;5.50;;
9761;SDS011;4920;49.594;11.022;2022-09-20T08:04:28;14.47;;;5.93;;
9761;SDS011;4920;49.594;11.022;2022-09-20T08:06:57;13.13;;;5.37;;
9761;SDS011;4920;49.594;11.022;2022-09-20T08:09:27;11.83;;;5.00;;
9761;SDS011;4920;49.594;11.022;2022-09-20T08:11:56;10.63;;;4.30;;
9761;SDS011;4920;49.594;11.022;2022-09-20T08:14:26;7.53;;;4.30;;
9761;SDS011;4920;49.594;11.022;2022-09-20T08:16:55;8.90;;;4.30;;
9761;SDS011;4920;49.594;11.022;2022-09-20T08:19:25;12.90;;;4.10;;
9761;SDS011;4920;49.594;11.022;2022-09-20T08:21:54;9.97;;;3.70;;
9761;SDS011;4920;49.594;11.022;2022-09-20T08:24:23;13.00;;;3.90;;
9761;SDS011;4920;49.594;11.022;2022-09-20T08:26:53;10.97;;;3.83;;
9761;SDS011;4920;49.594;11.022;2022-09-20T08:29:22;8.33;;;3.40;;
9761;SDS011;4920;49.594;11.022;2022-09-20T08:31:52;11.63;;;3.47;;
9761;SDS011;4920;49.594;11.022;2022-09-20T08:34:23;8.23;;;3.60;;
9761;SDS011;4920;49.594;11.022;2022-09-20T08:36:52;10.23;;;3.60;;
9761;SDS011;4920;49.594;11.022;2022-09-20T08:39:22;11.47;;;3.60;;
9761;SDS011;4920;49.594;11.022;2022-09-20T08:42:12;8.07;;;3.40;;
9761;SDS011;4920;49.594;11.022;2022-09-20T08:44:50;11.00;;;3.13;;
9761;SDS011;4920;49.594;11.022;2022-09-20T08:47:26;13.23;;;3.43;;
9761;SDS011;4920;49.594;11.022;2022-09-20T08:49:57;9.47;;;3.50;;
9761;SDS011;4920;49.594;11.022;2022-09-20T08:52:35;9.03;;;3.30;;
9761;SDS011;4920;49.594;11.022;2022-09-20T08:55:11;5.37;;;3.10;;
9761;SDS011;4920;49.594;11.022;2022-09-20T08:57:43;11.27;;;3.60;;
9761;SDS011;4920;49.594;11.022;2022-09-20T09:00:16;9.80;;;3.20;;
9761;SDS011;4920;49.594;11.022;2022-09-20T09:02:49;6.60;;;2.80;;
9761;SDS011;4920;49.594;11.022;2022-09-20T09:05:27;10.77;;;3.00;;
9761;SDS011;4920;49.594;11.022;2022-09-20T09:07:59;8.87;;;3.03;;
9761;SDS011;4920;49.594;11.022;2022-09-20T09:10:32;6.90;;;2.80;;
9761;SDS011;4920;49.594;11.022;2022-09-20T09:13:13;9.63;;;2.83;;
9761;SDS011;4920;49.594;11.022;2022-09-20T09:15:50;7.87;;;2.60;;
9761;SDS011;4920;49.594;11.022;2022-09-20T09:18:26;10.03;;;2.13;;
9761;SDS011;4920;49.594;11.022;2022-09-20T09:21:00;8.23;;;2.63;;
9761;SDS011;4920;49.594;11.022;2022-09-20T09:23:36;8.33;;;2.33;;
9761;SDS011;4920;49.594;11.022;2022-09-20T09:26:15;5.37;;;1.73;;
9761;SDS011;4920;49.594;11.022;2022-09-20T09:31:34;4.63;;;1.63;;
9761;SDS011;4920;49.594;11.022;2022-09-20T09:34:11;5.33;;;1.93;;
9761;SDS011;4920;49.594;11.022;2022-09-20T09:36:51;5.90;;;1.80;;
9761;SDS011;4920;49.594;11.022;2022-09-20T09:39:22;5.33;;;1.93;;
9761;SDS011;4920;49.594;11.022;2022-09-20T09:41:52;5.20;;;2.07;;
9761;SDS011;4920;49.594;11.022;2022-09-20T09:44:22;4.27;;;1.77;;
9761;SDS011;4920;49.594;11.022;2022-09-20T09:46:53;5.43;;;1.70;;
9761;SDS011;4920;49.594;11.022;2022-09-20T09:49:25;8.03;;;2.00;;
9761;SDS011;4920;49.594;11.022;2022-09-20T09:52:01;6.60;;;1.90;;
9761;SDS011;4920;49.594;11.022;2022-09-20T09:54:32;7.53;;;2.00;;
9761;SDS011;4920;49.594;11.022;2022-09-20T10:00:02;6.90;;;2.00;;
9761;SDS011;4920;49.594;11.022;2022-09-20T10:02:53;6.30;;;2.05;;
9761;SDS011;4920;49.594;11.022;2022-09-20T10:05:36;8.60;;;2.37;;
9761;SDS011;4920;49.594;11.022;2022-09-20T10:08:16;8.03;;;2.10;;
9761;SDS011;4920;49.594;11.022;2022-09-20T10:10:58;8.40;;;2.70;;
9761;SDS011;4920;49.594;11.022;2022-09-20T10:13:38;9.00;;;2.23;;
9761;SDS011;4920;49.594;11.022;2022-09-20T10:16:14;6.87;;;2.10;;
9761;SDS011;4920;49.594;11.022;2022-09-20T10:18:50;6.70;;;2.40;;
9761;SDS011;4920;49.594;11.022;2022-09-20T10:21:34;5.03;;;2.00;;
9761;SDS011;4920;49.594;11.022;2022-09-20T10:24:14;6.57;;;2.20;;
9761;SDS011;4920;49.594;11.022;2022-09-20T10:27:01;9.23;;;2.10;;
9761;SDS011;4920;49.594;11.022;2022-09-20T10:29:41;4.53;;;1.97;;
9761;SDS011;4920;49.594;11.022;2022-09-20T10:32:22;5.83;;;2.30;;
9761;SDS011;4920;49.594;11.022;2022-09-20T10:35:06;8.30;;;2.63;;
9761;SDS011;4920;49.594;11.022;2022-09-20T10:38:02;10.07;;;2.10;;
9761;SDS011;4920;49.594;11.022;2022-09-20T10:44:26;6.30;;;2.07;;
9761;SDS011;4920;49.594;11.022;2022-09-20T10:47:07;7.00;;;1.80;;
9761;SDS011;4920;49.594;11.022;2022-09-20T10:49:48;7.17;;;2.00;;
9761;SDS011;4920;49.594;11.022;2022-09-20T10:52:33;6.20;;;1.87;;
9761;SDS011;4920;49.594;11.022;2022-09-20T10:55:28;5.33;;;1.67;;
9761;SDS011;4920;49.594;11.022;2022-09-20T11:01:22;7.90;;;1.60;;
9761;SDS011;4920;49.594;11.022;2022-09-20T11:04:00;6.80;;;1.70;;
9761;SDS011;4920;49.594;11.022;2022-09-20T11:06:44;6.33;;;1.80;;
9761;SDS011;4920;49.594;11.022;2022-09-20T11:09:21;6.83;;;1.90;;
9761;SDS011;4920;49.594;11.022;2022-09-20T11:11:57;7.00;;;1.50;;
9761;SDS011;4920;49.594;11.022;2022-09-20T11:14:34;9.03;;;2.27;;
9761;SDS011;4920;49.594;11.022;2022-09-20T11:17:10;6.67;;;1.90;;
9761;SDS011;4920;49.594;11.022;2022-09-20T11:19:45;6.67;;;1.77;;
9761;SDS011;4920;49.594;11.022;2022-09-20T11:22:23;6.75;;;1.75;;
9761;SDS011;4920;49.594;11.022;2022-09-20T11:24:59;7.23;;;2.00;;
9761;SDS011;4920;49.594;11.022;2022-09-20T11:27:36;8.53;;;1.80;;
9761;SDS011;4920;49.594;11.022;2022-09-20T11:30:13;4.90;;;1.63;;
9761;SDS011;4920;49.594;11.022;2022-09-20T11:32:45;6.47;;;1.43;;
9761;SDS011;4920;49.594;11.022;2022-09-20T11:35:20;5.17;;;1.63;;
9761;SDS011;4920;49.594;11.022;2022-09-20T11:37:57;4.57;;;1.77;;
9761;SDS011;4920;49.594;11.022;2022-09-20T11:40:37;3.77;;;1.47;;
9761;SDS011;4920;49.594;11.022;2022-09-20T11:43:14;5.47;;;1.60;;
9761;SDS011;4920;49.594;11.022;2022-09-20T11:45:46;3.47;;;1.30;;
9761;SDS011;4920;49.594;11.022;2022-09-20T11:48:19;3.80;;;1.30;;
9761;SDS011;4920;49.594;11.022;2022-09-20T11:51:08;5.33;;;1.50;;
9761;SDS011;4920;49.594;11.022;2022-09-20T11:54:03;5.53;;;1.80;;
9761;SDS011;4920;49.594;11.022;2022-09-20T11:56:48;3.57;;;1.20;;
9761;SDS011;4920;49.594;11.022;2022-09-20T11:59:24;5.10;;;1.77;;
9761;SDS011;4920;49.594;11.022;2022-09-20T12:01:57;4.53;;;1.10;;
9761;SDS011;4920;49.594;11.022;2022-09-20T12:04:30;3.97;;;1.45;;
9761;SDS011;4920;49.594;11.022;2022-09-20T12:07:03;3.63;;;1.10;;
9761;SDS011;4920;49.594;11.022;2022-09-20T12:09:41;3.13;;;1.30;;
9761;SDS011;4920;49.594;11.022;2022-09-20T12:12:13;5.77;;;1.30;;
9761;SDS011;4920;49.594;11.022;2022-09-20T12:14:53;3.93;;;1.37;;
9761;SDS011;4920;49.594;11.022;2022-09-20T12:26:43;2.95;;;1.25;;
9761;SDS011;4920;49.594;11.022;2022-09-20T12:38:45;2.72;;;1.08;;
9761;SDS011;4920;49.594;11.022;2022-09-20T12:41:46;2.78;;;0.90;;
9761;SDS011;4920;49.594;11.022;2022-09-20T12:44:25;3.30;;;1.00;;
9761;SDS011;4920;49.594;11.022;2022-09-20T12:46:59;3.20;;;1.25;;
9761;SDS011;4920;49.594;11.022;2022-09-20T12:49:36;2.40;;;1.30;;
9761;SDS011;4920;49.594;11.022;2022-09-20T12:52:31;5.38;;;1.27;;
9761;SDS011;4920;49.594;11.022;2022-09-20T12:55:36;3.25;;;1.42;;
9761;SDS011;4920;49.594;11.022;2022-09-20T12:58:20;2.35;;;1.20;;
9761;SDS011;4920;49.594;11.022;2022-09-20T13:13:24;2.67;;;1.43;;
9761;SDS011;4920;49.594;11.022;2022-09-20T13:15:57;2.20;;;1.27;;
9761;SDS011;4920;49.594;11.022;2022-09-20T13:18:32;2.23;;;1.40;;
9761;SDS011;4920;49.594;11.022;2022-09-20T13:21:02;4.60;;;1.60;;
9761;SDS011;4920;49.594;11.022;2022-09-20T13:23:36;4.87;;;1.40;;
9761;SDS011;4920;49.594;11.022;2022-09-20T13:26:12;4.43;;;1.70;;
9761;SDS011;4920;49.594;11.022;2022-09-20T13:28:44;5.05;;;1.30;;
9761;SDS011;4920;49.594;11.022;2022-09-20T13:31:24;4.25;;;1.50;;
9761;SDS011;4920;49.594;11.022;2022-09-20T13:33:53;3.00;;;1.20;;
9761;SDS011;4920;49.594;11.022;2022-09-20T13:36:26;2.53;;;1.20;;
9761;SDS011;4920;49.594;11.022;2022-09-20T13:38:58;6.32;;;1.52;;
9761;SDS011;4920;49.594;11.022;2022-09-20T13:41:28;5.00;;;1.70;;
9761;SDS011;4920;49.594;11.022;2022-09-20T13:43:58;6.80;;;1.45;;
9761;SDS011;4920;49.594;11.022;2022-09-20T13:46:28;3.40;;;1.30;;
9761;SDS011;4920;49.594;11.022;2022-09-20T13:48:58;3.25;;;1.20;;
9761;SDS011;4920;49.594;11.022;2022-09-20T13:51:40;4.35;;;1.40;;
9761;SDS011;4920;49.594;11.022;2022-09-20T13:56:59;4.28;;;1.40;;
9761;SDS011;4920;49.594;11.022;2022-09-20T13:59:31;5.13;;;1.70;;
9761;SDS011;4920;49.594;11.022;2022-09-20T14:02:02;2.75;;;1.23;;
9761;SDS011;4920;49.594;11.022;2022-09-20T14:04:31;3.38;;;1.20;;
9761;SDS011;4920;49.594;11.022;2022-09-20T14:07:02;3.05;;;1.20;;
9761;SDS011;4920;49.594;11.022;2022-09-20T14:09:36;3.28;;;1.02;;
9761;SDS011;4920;49.594;11.022;2022-09-20T14:12:07;2.33;;;0.90;;
9761;SDS011;4920;49.594;11.022;2022-09-20T14:14:38;2.85;;;1.00;;
9761;SDS011;4920;49.594;11.022;2022-09-20T14:17:07;3.63;;;1.00;;
9761;SDS011;4920;49.594;11.022;2022-09-20T14:19:37;3.13;;;0.90;;
9761;SDS011;4920;49.594;11.022;2022-09-20T14:22:12;1.55;;;0.90;;
9761;SDS011;4920;49.594;11.022;2022-09-20T14:24:56;1.70;;;0.80;;
9761;SDS011;4920;49.594;11.022;2022-09-20T14:27:30;3.85;;;1.00;;
9761;SDS011;4920;49.594;11.022;2022-09-20T14:29:59;1.73;;;0.90;;
9761;SDS011;4920;49.594;11.022;2022-09-20T14:32:34;1.90;;;0.95;;
9761;SDS011;4920;49.594;11.022;2022-09-20T14:35:06;2.15;;;0.80;;
9761;SDS011;4920;49.594;11.022;2022-09-20T14:37:42;3.88;;;1.02;;
9761;SDS011;4920;49.594;11.022;2022-09-20T14:40:25;2.78;;;1.00;;
9761;SDS011;4920;49.594;11.022;2022-09-20T14:42:56;1.80;;;0.82;;
9761;SDS011;4920;49.594;11.022;2022-09-20T14:45:28;2.15;;;0.93;;
9761;SDS011;4920;49.594;11.022;2022-09-20T14:48:00;1.55;;;0.85;;
9761;SDS011;4920;49.594;11.022;2022-09-20T14:50:37;3.47;;;1.02;;
9761;SDS011;4920;49.594;11.022;2022-09-20T14:53:22;3.20;;;1.10;;
9761;SDS011;4920;49.594;11.022;2022-09-20T14:55:55;3.78;;;1.13;;
9761;SDS011;4920;49.594;11.022;2022-09-20T14:58:26;3.13;;;1.20;;
9761;SDS011;4920;49.594;11.022;2022-09-20T15:00:55;2.43;;;1.00;;
9761;SDS011;4920;49.594;11.022;2022-09-20T15:03:29;2.73;;;1.10;;
9761;SDS011;4920;49.594;11.022;2022-09-20T15:05:59;2.07;;;1.00;;
9761;SDS011;4920;49.594;11.022;2022-09-20T15:08:29;3.57;;;1.20;;
9761;SDS011;4920;49.594;11.022;2022-09-20T15:10:59;2.37;;;1.10;;
9761;SDS011;4920;49.594;11.022;2022-09-20T15:13:28;2.03;;;1.10;;
9761;SDS011;4920;49.594;11.022;2022-09-20T15:15:56;2.47;;;1.10;;
9761;SDS011;4920;49.594;11.022;2022-09-20T15:18:26;1.50;;;0.90;;
9761;SDS011;4920;49.594;11.022;2022-09-20T15:20:59;2.40;;;1.10;;
9761;SDS011;4920;49.594;11.022;2022-09-20T15:23:28;2.10;;;1.10;;
9761;SDS011;4920;49.594;11.022;2022-09-20T15:25:58;2.60;;;1.17;;
9761;SDS011;4920;49.594;11.022;2022-09-20T15:28:27;1.40;;;0.83;;
9761;SDS011;4920;49.594;11.022;2022-09-20T15:30:58;4.20;;;1.20;;
9761;SDS011;4920;49.594;11.022;2022-09-20T15:33:28;1.67;;;1.13;;
9761;SDS011;4920;49.594;11.022;2022-09-20T15:35:58;5.10;;;1.20;;
9761;SDS011;4920;49.594;11.022;2022-09-20T15:38:28;1.73;;;0.90;;
9761;SDS011;4920;49.594;11.022;2022-09-20T15:41:00;2.60;;;1.10;;
9761;SDS011;4920;49.594;11.022;2022-09-20T15:43:29;3.23;;;1.20;;
9761;SDS011;4920;49.594;11.022;2022-09-20T15:45:59;3.10;;;1.00;;
9761;SDS011;4920;49.594;11.022;2022-09-20T15:48:43;3.80;;;1.90;;
9761;SDS011;4920;49.594;11.022;2022-09-20T15:51:12;2.93;;;1.07;;
9761;SDS011;4920;49.594;11.022;2022-09-20T15:53:41;3.10;;;1.23;;
9761;SDS011;4920;49.594;11.022;2022-09-20T15:56:16;1.87;;;1.10;;
9761;SDS011;4920;49.594;11.022;2022-09-20T15:58:47;3.73;;;1.40;;
9761;SDS011;4920;49.594;11.022;2022-09-20T16:01:17;3.50;;;1.10;;
9761;SDS011;4920;49.594;11.022;2022-09-20T16:03:46;2.80;;;1.20;;
9761;SDS011;4920;49.594;11.022;2022-09-20T16:06:16;2.07;;;0.80;;
9761;SDS011;4920;49.594;11.022;2022-09-20T16:08:45;2.87;;;1.00;;
9761;SDS011;4920;49.594;11.022;2022-09-20T16:11:16;1.80;;;1.10;;
9761;SDS011;4920;49.594;11.022;2022-09-20T16:13:51;2.00;;;0.70;;
9761;SDS011;4920;49.594;11.022;2022-09-20T16:16:21;1.83;;;0.70;;
9761;SDS011;4920;49.594;11.022;2022-09-20T16:18:50;2.40;;;0.93;;
9761;SDS011;4920;49.594;11.022;2022-09-20T16:21:36;1.07;;;0.70;;
9761;SDS011;4920;49.594;11.022;2022-09-20T16:24:06;2.00;;;0.80;;
9761;SDS011;4920;49.594;11.022;2022-09-20T16:26:37;2.87;;;1.23;;
9761;SDS011;4920;49.594;11.022;2022-09-20T16:29:07;1.50;;;1.00;;
9761;SDS011;4920;49.594;11.022;2022-09-20T16:31:37;1.07;;;0.83;;
9761;SDS011;4920;49.594;11.022;2022-09-20T16:34:11;2.17;;;0.80;;
9761;SDS011;4920;49.594;11.022;2022-09-20T16:36:42;2.23;;;1.07;;
9761;SDS011;4920;49.594;11.022;2022-09-20T16:39:12;1.93;;;1.20;;
9761;SDS011;4920;49.594;11.022;2022-09-20T16:41:44;1.73;;;1.20;;
9761;SDS011;4920;49.594;11.022;2022-09-20T16:44:13;2.80;;;1.37;;
9761;SDS011;4920;49.594;11.022;2022-09-20T16:46:42;2.60;;;1.93;;
9761;SDS011;4920;49.594;11.022;2022-09-20T16:49:11;2.10;;;1.20;;
9761;SDS011;4920;49.594;11.022;2022-09-20T16:51:42;1.47;;;1.30;;
9761;SDS011;4920;49.594;11.022;2022-09-20T16:54:13;4.20;;;2.20;;
9761;SDS011;4920;49.594;11.022;2022-09-20T16:56:45;5.23;;;2.50;;
9761;SDS011;4920;49.594;11.022;2022-09-20T16:59:16;3.03;;;2.47;;
9761;SDS011;4920;49.594;11.022;2022-09-20T17:01:47;1.63;;;1.30;;
9761;SDS011;4920;49.594;11.022;2022-09-20T17:04:18;1.73;;;1.20;;
9761;SDS011;4920;49.594;11.022;2022-09-20T17:06:47;2.27;;;1.30;;
9761;SDS011;4920;49.594;11.022;2022-09-20T17:09:17;1.53;;;1.30;;
9761;SDS011;4920;49.594;11.022;2022-09-20T17:11:48;3.03;;;1.47;;
9761;SDS011;4920;49.594;11.022;2022-09-20T17:14:18;2.70;;;2.40;;
9761;SDS011;4920;49.594;11.022;2022-09-20T17:16:47;2.53;;;1.43;;